Time;durP1;ratioP1;P1;durP2;ratioP2;P2;SDS_P1;SDS_P2;PMS_P1;PMS_P2;Temp;Humidity;BMP_temperature;BMP_pressure;BME280_temperature;BME280_humidity;BME280_pressure;Samples;Min_cycle;Max_cycle;Signal;HPM_P1;HPM_P2
2024/02/12 00:01:37;;;;;;;20.15;8.95;;;9.40;93.20;;;;;;5071160;28;20021;-37
2024/02/12 00:04:06;;;;;;;14.32;8.95;;;9.30;93.20;;;;;;5071509;28;20461;-38
2024/02/12 00:06:32;;;;;;;14.73;9.38;;;9.30;93.30;;;;;;5071364;28;20036;-37
2024/02/12 00:08:58;;;;;;;14.60;9.60;;;9.20;93.30;;;;;;5071887;28;20032;-36
2024/02/12 00:11:24;;;;;;;13.75;8.50;;;9.20;93.30;;;;;;5074273;28;20123;-37
2024/02/12 00:13:50;;;;;;;15.70;9.05;;;9.20;93.40;;;;;;5075084;28;20021;-37
2024/02/12 00:16:15;;;;;;;16.02;9.23;;;9.10;93.40;;;;;;5075076;28;20025;-38
2024/02/12 00:18:42;;;;;;;14.45;8.35;;;9.10;93.40;;;;;;5074941;28;20021;-39
2024/02/12 00:21:07;;;;;;;14.90;8.98;;;9.10;93.40;;;;;;5073624;28;20074;-50
2024/02/12 00:23:34;;;;;;;15.48;8.93;;;9.10;93.70;;;;;;5075115;28;20412;-38
2024/02/12 00:25:59;;;;;;;14.75;8.57;;;9.10;93.50;;;;;;5075183;28;20127;-37
2024/02/12 00:28:28;;;;;;;15.10;9.70;;;9.10;93.50;;;;;;5075139;28;20481;-38
2024/02/12 00:30:56;;;;;;;16.63;9.80;;;9.00;93.50;;;;;;5075220;28;20035;-36
2024/02/12 00:33:22;;;;;;;12.70;9.30;;;9.00;93.40;;;;;;5075128;28;20392;-37
2024/02/12 00:35:48;;;;;;;14.65;9.93;;;9.00;93.50;;;;;;5074653;28;20119;-36
2024/02/12 00:38:13;;;;;;;15.15;9.73;;;9.00;93.50;;;;;;5074692;28;20021;-37
2024/02/12 00:40:40;;;;;;;14.02;9.27;;;9.00;93.50;;;;;;5074610;28;20086;-38
2024/02/12 00:43:06;;;;;;;14.85;9.88;;;9.00;93.50;;;;;;5074928;28;20385;-36
2024/02/12 00:45:32;;;;;;;15.88;9.15;;;9.00;93.50;;;;;;5074695;28;20044;-38
2024/02/12 00:47:58;;;;;;;16.38;9.95;;;9.10;93.50;;;;;;5074481;28;20448;-37
2024/02/12 00:50:25;;;;;;;14.75;9.55;;;9.10;93.40;;;;;;5074345;28;20067;-39
2024/02/12 00:52:52;;;;;;;14.60;9.57;;;9.20;93.40;;;;;;5074700;28;20480;-37
2024/02/12 00:55:20;;;;;;;17.15;10.15;;;9.20;93.40;;;;;;5074618;28;20138;-37
2024/02/12 00:57:45;;;;;;;17.38;10.18;;;9.20;93.30;;;;;;5074570;28;20044;-40
2024/02/12 01:00:15;;;;;;;14.15;10.13;;;9.30;93.30;;;;;;5074520;28;20021;-36
2024/02/12 01:02:42;;;;;;;18.02;10.77;;;9.30;93.30;;;;;;5074022;28;20032;-46
2024/02/12 01:05:08;;;;;;;18.80;10.50;;;9.30;93.30;;;;;;5074497;28;20098;-43
2024/02/12 01:07:35;;;;;;;19.60;10.85;;;9.20;93.30;;;;;;5072911;28;20028;-38
2024/02/12 01:10:02;;;;;;;18.23;11.05;;;9.30;93.30;;;;;;5074164;28;20025;-40
2024/02/12 01:12:28;;;;;;;17.02;10.18;;;9.30;93.20;;;;;;5072728;28;20055;-37
2024/02/12 01:14:54;;;;;;;20.42;10.82;;;9.20;93.20;;;;;;5074518;28;20032;-39
2024/02/12 01:17:21;;;;;;;19.77;12.02;;;9.20;93.20;;;;;;5073766;28;20423;-37
2024/02/12 01:19:47;;;;;;;19.83;11.85;;;9.20;93.20;;;;;;5073920;28;20392;-37
2024/02/12 01:22:13;;;;;;;18.35;11.52;;;9.20;93.30;;;;;;5073421;28;20094;-39
2024/02/12 01:24:39;;;;;;;20.80;11.88;;;9.20;93.30;;;;;;5074040;28;20108;-38
2024/02/12 01:27:04;;;;;;;22.23;11.48;;;9.30;93.30;;;;;;5073961;28;20445;-36
2024/02/12 01:29:31;;;;;;;17.15;11.73;;;9.30;93.30;;;;;;5073938;28;20028;-37
2024/02/12 01:31:56;;;;;;;18.02;10.55;;;9.30;93.30;;;;;;5074107;28;20030;-37
2024/02/12 01:34:22;;;;;;;17.58;11.25;;;9.30;93.30;;;;;;5073530;28;20493;-38
2024/02/12 01:36:47;;;;;;;18.27;11.45;;;9.30;93.20;;;;;;5073551;28;20033;-36
2024/02/12 01:39:13;;;;;;;20.88;12.88;;;9.30;93.30;;;;;;5073475;28;20024;-38
2024/02/12 01:41:39;;;;;;;16.25;11.30;;;9.30;93.30;;;;;;5073686;28;20453;-37
2024/02/12 01:44:04;;;;;;;19.88;11.52;;;9.20;93.30;;;;;;5073594;28;20561;-38
2024/02/12 01:46:30;;;;;;;21.80;12.63;;;9.20;93.30;;;;;;5073697;28;20035;-37
2024/02/12 01:48:57;;;;;;;18.52;11.82;;;9.30;93.30;;;;;;5073363;28;20021;-36
2024/02/12 01:51:25;;;;;;;19.02;11.73;;;9.20;93.30;;;;;;5073419;28;20031;-37
2024/02/12 01:53:51;;;;;;;21.45;12.45;;;9.20;93.30;;;;;;5073376;28;20476;-38
2024/02/12 01:56:19;;;;;;;19.85;12.35;;;9.20;93.30;;;;;;5073516;28;20037;-36
2024/02/12 01:58:45;;;;;;;20.10;13.02;;;9.20;93.30;;;;;;5073126;28;20021;-37
2024/02/12 02:01:13;;;;;;;18.80;13.00;;;9.20;93.40;;;;;;5072991;28;20020;-38
2024/02/12 02:03:40;;;;;;;21.15;12.88;;;9.20;93.30;;;;;;5072929;28;20028;-35
2024/02/12 02:06:07;;;;;;;19.10;12.00;;;9.20;93.30;;;;;;5073018;28;20081;-38
2024/02/12 02:08:36;;;;;;;20.85;12.32;;;9.20;93.40;;;;;;5072984;28;20060;-41
2024/02/12 02:11:06;;;;;;;20.77;12.75;;;9.20;93.40;;;;;;5073246;28;20021;-37
2024/02/12 02:13:33;;;;;;;22.10;12.65;;;9.20;93.30;;;;;;5073217;28;20419;-37
2024/02/12 02:16:00;;;;;;;22.00;12.18;;;9.20;93.40;;;;;;5072633;28;20029;-34
2024/02/12 02:18:25;;;;;;;25.15;13.05;;;9.20;93.40;;;;;;5072806;28;20069;-37
2024/02/12 02:20:51;;;;;;;19.73;12.63;;;9.10;93.30;;;;;;5072874;28;20032;-37
2024/02/12 02:23:16;;;;;;;20.90;12.55;;;9.10;93.40;;;;;;5072778;28;20028;-38
2024/02/12 02:25:42;;;;;;;19.83;12.20;;;9.10;93.40;;;;;;5073010;28;20021;-37
2024/02/12 02:28:08;;;;;;;17.33;12.25;;;9.20;93.40;;;;;;5072666;28;20404;-37
2024/02/12 02:30:33;;;;;;;21.88;12.65;;;9.20;93.40;;;;;;5072576;28;20021;-37
2024/02/12 02:33:00;;;;;;;22.00;13.18;;;9.20;93.40;;;;;;5071014;28;20028;-36
2024/02/12 02:35:25;;;;;;;20.48;12.02;;;9.20;93.40;;;;;;5072472;28;20036;-38
2024/02/12 02:37:51;;;;;;;21.13;12.55;;;9.20;93.40;;;;;;5072471;28;20155;-37
2024/02/12 02:40:17;;;;;;;19.08;12.63;;;9.20;93.40;;;;;;5071241;28;20033;-38
2024/02/12 02:42:44;;;;;;;21.52;12.77;;;9.20;93.40;;;;;;5072671;28;20020;-38
2024/02/12 02:45:10;;;;;;;20.25;12.20;;;9.20;93.40;;;;;;5072463;28;20062;-37
2024/02/12 02:47:37;;;;;;;22.05;13.10;;;9.30;93.40;;;;;;5072330;28;20028;-38
2024/02/12 02:50:04;;;;;;;22.88;12.70;;;9.30;93.40;;;;;;5072352;28;20033;-37
2024/02/12 02:52:30;;;;;;;23.20;13.63;;;9.30;93.40;;;;;;5072260;28;20033;-35
2024/02/12 02:54:56;;;;;;;21.45;12.98;;;9.30;93.30;;;;;;5070919;28;20028;-38
2024/02/12 02:57:21;;;;;;;23.02;12.55;;;9.20;93.30;;;;;;5072141;28;20021;-38
2024/02/12 02:59:47;;;;;;;21.52;14.05;;;9.20;93.40;;;;;;5072125;28;20499;-37
2024/02/12 03:02:12;;;;;;;21.60;13.27;;;9.30;93.30;;;;;;5071759;28;20024;-40
2024/02/12 03:04:40;;;;;;;23.73;13.82;;;9.20;93.30;;;;;;5072278;28;20017;-38
2024/02/12 03:07:07;;;;;;;23.10;13.95;;;9.20;93.30;;;;;;5072149;28;20036;-37
2024/02/12 03:09:35;;;;;;;24.00;14.00;;;9.20;93.40;;;;;;5072178;28;20028;-39
2024/02/12 03:12:01;;;;;;;24.25;14.55;;;9.20;93.40;;;;;;5072261;28;20111;-37
2024/02/12 03:14:27;;;;;;;23.25;13.55;;;9.20;93.40;;;;;;5072090;28;20120;-37
2024/02/12 03:16:56;;;;;;;24.58;14.60;;;9.20;93.30;;;;;;5071886;28;20083;-37
2024/02/12 03:19:21;;;;;;;22.08;13.57;;;9.20;93.40;;;;;;5071540;28;20020;-37
2024/02/12 03:21:51;;;;;;;24.02;13.65;;;9.20;93.40;;;;;;5071624;28;20077;-36
2024/02/12 03:24:19;;;;;;;23.08;13.52;;;9.20;93.40;;;;;;5071661;28;20029;-36
2024/02/12 03:26:45;;;;;;;21.73;12.88;;;9.20;93.30;;;;;;5070905;28;20032;-38
2024/02/12 03:29:12;;;;;;;20.00;13.05;;;9.20;93.40;;;;;;5071767;28;20078;-38
2024/02/12 03:31:40;;;;;;;22.88;13.55;;;9.20;93.40;;;;;;5071635;28;20037;-37
2024/02/12 03:34:05;;;;;;;23.77;13.02;;;9.20;93.40;;;;;;5071310;28;20060;-36
2024/02/12 03:36:31;;;;;;;24.27;12.85;;;9.20;93.40;;;;;;5071449;28;20032;-38
2024/02/12 03:38:58;;;;;;;25.33;13.75;;;9.20;93.40;;;;;;5071488;28;20028;-35
2024/02/12 03:41:24;;;;;;;26.17;13.75;;;9.20;93.30;;;;;;5070147;28;20051;-37
2024/02/12 03:43:53;;;;;;;29.25;14.68;;;9.20;93.30;;;;;;5071097;28;20055;-37
2024/02/12 03:46:20;;;;;;;24.88;13.98;;;9.20;93.30;;;;;;5071549;28;20115;-38
2024/02/12 03:59:53;;;;;;;23.90;13.07;;;9.00;93.50;;;;;;5071174;28;20150;-39
2024/02/12 04:02:22;;;;;;;25.70;13.38;;;9.00;93.50;;;;;;5071389;28;20056;-37
2024/02/12 04:04:50;;;;;;;21.20;12.80;;;8.90;93.50;;;;;;5071230;28;20029;-36
2024/02/12 04:07:21;;;;;;;23.08;12.85;;;8.90;93.50;;;;;;5071212;28;20104;-38
2024/02/12 04:09:47;;;;;;;21.92;13.20;;;8.90;93.50;;;;;;5071214;28;20081;-37
2024/02/12 04:12:13;;;;;;;23.17;13.88;;;8.90;93.50;;;;;;5071083;28;20104;-38
2024/02/12 04:14:42;;;;;;;23.00;13.40;;;8.90;93.50;;;;;;5071210;28;20028;-36
2024/02/12 04:17:15;;;;;;;20.42;13.43;;;8.80;93.50;;;;;;5070921;28;20493;-35
2024/02/12 04:19:42;;;;;;;21.52;13.13;;;8.80;93.60;;;;;;5071197;28;20158;-37
2024/02/12 04:22:14;;;;;;;20.95;12.68;;;8.80;93.60;;;;;;5071342;28;20029;-37
2024/02/12 04:24:40;;;;;;;20.77;13.38;;;8.80;93.70;;;;;;5071312;28;20035;-36
2024/02/12 04:27:07;;;;;;;25.35;13.23;;;8.80;93.70;;;;;;5071315;28;20036;-37
2024/02/12 04:29:35;;;;;;;22.58;14.00;;;8.70;93.60;;;;;;5071264;28;20037;-38
2024/02/12 04:32:03;;;;;;;25.98;14.80;;;8.70;93.70;;;;;;5070881;28;20124;-36
2024/02/12 04:34:28;;;;;;;22.45;13.82;;;8.80;94.00;;;;;;5070742;28;20216;-38
2024/02/12 04:36:55;;;;;;;25.05;14.65;;;8.80;93.60;;;;;;5071002;28;20059;-42
2024/02/12 04:39:21;;;;;;;29.35;14.77;;;8.80;93.50;;;;;;5070747;28;20017;-35
2024/02/12 04:41:51;;;;;;;24.52;14.45;;;8.80;93.50;;;;;;5070856;28;20377;-35
2024/02/12 04:44:17;;;;;;;21.98;14.27;;;8.80;93.50;;;;;;5071360;28;20028;-39
2024/02/12 04:46:42;;;;;;;27.75;16.08;;;8.80;93.40;;;;;;5070991;28;20017;-38
2024/02/12 04:49:09;;;;;;;28.13;17.13;;;8.70;93.30;;;;;;5070521;28;20028;-37
2024/02/12 04:51:39;;;;;;;28.90;15.93;;;8.70;93.30;;;;;;5069914;28;20433;-38
2024/02/12 04:54:04;;;;;;;26.55;15.95;;;8.60;93.30;;;;;;5070906;28;20473;-37
2024/02/12 04:56:30;;;;;;;26.55;15.73;;;8.60;93.30;;;;;;5073543;28;20037;-38
2024/02/12 04:58:57;;;;;;;24.75;15.20;;;8.50;93.40;;;;;;5074278;28;20022;-37
2024/02/12 05:01:26;;;;;;;28.30;15.45;;;8.50;93.40;;;;;;5074477;28;20024;-38
2024/02/12 05:03:58;;;;;;;24.20;14.13;;;8.50;93.40;;;;;;5074622;28;20016;-38
2024/02/12 05:06:24;;;;;;;24.92;13.85;;;8.50;93.40;;;;;;5074376;28;20099;-43
2024/02/12 05:08:50;;;;;;;22.95;13.30;;;8.40;93.40;;;;;;5074218;28;20032;-38
2024/02/12 05:11:16;;;;;;;24.30;13.55;;;8.40;93.40;;;;;;5074639;28;20590;-37
2024/02/12 05:13:43;;;;;;;26.15;15.27;;;8.40;93.40;;;;;;5074044;28;20108;-40
2024/02/12 05:16:10;;;;;;;24.95;14.02;;;8.40;93.40;;;;;;5072603;28;20043;-41
2024/02/12 05:24:04;;;;;;;29.75;15.30;;;8.20;93.40;;;;;;5074348;28;20603;-43
2024/02/12 05:26:30;;;;;;;27.30;16.27;;;8.10;93.40;;;;;;5073820;28;20111;-35
2024/02/12 05:28:56;;;;;;;29.08;16.20;;;8.10;93.50;;;;;;5073855;28;20107;-37
2024/02/12 05:31:21;;;;;;;28.90;15.80;;;8.10;93.50;;;;;;5072777;28;20362;-37
2024/02/12 05:33:48;;;;;;;33.50;17.55;;;8.10;93.50;;;;;;5073565;28;20028;-37
2024/02/12 05:36:20;;;;;;;29.70;16.52;;;8.10;93.40;;;;;;5073601;28;20047;-38
2024/02/12 05:38:46;;;;;;;32.85;17.40;;;8.10;93.40;;;;;;5073637;28;20016;-37
2024/02/12 05:41:13;;;;;;;31.73;16.77;;;8.00;93.50;;;;;;5073714;28;20469;-37
2024/02/12 05:43:42;;;;;;;29.50;15.70;;;8.00;93.50;;;;;;5073734;28;20013;-34
2024/02/12 05:46:07;;;;;;;29.50;16.17;;;8.10;93.50;;;;;;5073774;28;20028;-37
2024/02/12 05:48:34;;;;;;;33.28;16.33;;;8.10;93.50;;;;;;5072119;28;20043;-38
2024/02/12 05:51:00;;;;;;;28.33;16.08;;;8.10;93.50;;;;;;5073746;28;20407;-37
2024/02/12 05:53:28;;;;;;;28.67;16.77;;;8.00;93.40;;;;;;5073294;28;20104;-37
2024/02/12 05:55:55;;;;;;;27.75;15.80;;;8.00;93.40;;;;;;5073540;28;20392;-38
2024/02/12 05:58:24;;;;;;;30.75;15.93;;;8.00;93.40;;;;;;5073217;28;20021;-37
2024/02/12 06:00:49;;;;;;;28.73;16.17;;;7.90;93.50;;;;;;5073456;28;20133;-34
2024/02/12 06:03:15;;;;;;;31.45;16.45;;;8.00;93.60;;;;;;5073356;28;20017;-38
2024/02/12 06:05:40;;;;;;;26.48;16.02;;;8.00;93.50;;;;;;5073378;28;20023;-37
2024/02/12 06:08:07;;;;;;;28.20;15.73;;;8.00;93.60;;;;;;5072736;28;20377;-37
2024/02/12 06:10:33;;;;;;;26.02;15.68;;;7.90;93.60;;;;;;5073541;28;20371;-37
2024/02/12 06:12:58;;;;;;;26.73;15.95;;;8.00;93.60;;;;;;5071744;28;20116;-37
2024/02/12 06:15:24;;;;;;;27.77;14.80;;;8.00;93.60;;;;;;5073281;28;20361;-37
2024/02/12 06:17:50;;;;;;;26.15;16.00;;;8.10;93.60;;;;;;5072635;28;20236;-37
2024/02/12 06:20:15;;;;;;;26.77;15.30;;;8.10;93.50;;;;;;5071471;28;20027;-38
2024/02/12 06:22:42;;;;;;;33.22;17.45;;;8.10;93.50;;;;;;5071604;28;20012;-37
2024/02/12 06:25:09;;;;;;;29.42;16.23;;;8.20;93.40;;;;;;5072831;28;20066;-36
2024/02/12 06:27:35;;;;;;;29.13;16.48;;;8.20;93.40;;;;;;5073035;28;20062;-37
2024/02/12 06:30:00;;;;;;;33.53;16.73;;;8.20;93.30;;;;;;5072515;28;20393;-36
2024/02/12 06:32:26;;;;;;;30.65;16.58;;;8.20;93.30;;;;;;5072590;28;20017;-38
2024/02/12 06:34:52;;;;;;;29.88;15.77;;;8.30;93.40;;;;;;5072350;28;20115;-37
2024/02/12 06:37:17;;;;;;;26.90;15.13;;;8.30;93.30;;;;;;5072416;28;20032;-37
2024/02/12 06:39:43;;;;;;;28.95;16.00;;;8.40;93.30;;;;;;5072613;28;20025;-38
2024/02/12 06:42:08;;;;;;;31.48;15.93;;;8.40;93.30;;;;;;5072956;28;20378;-35
2024/02/12 06:44:34;;;;;;;30.48;15.10;;;8.40;93.30;;;;;;5070943;28;20047;-39
2024/02/12 06:46:59;;;;;;;30.77;16.17;;;8.40;93.20;;;;;;5072230;28;20032;-36
2024/02/12 06:49:25;;;;;;;30.23;16.63;;;8.40;93.20;;;;;;5072101;28;20024;-37
2024/02/12 06:51:51;;;;;;;29.83;15.57;;;8.40;93.10;;;;;;5072376;28;20021;-38
2024/02/12 06:54:18;;;;;;;31.45;15.60;;;8.30;93.10;;;;;;5072391;28;20162;-36
2024/02/12 06:56:44;;;;;;;26.80;15.48;;;8.40;93.20;;;;;;5072358;28;20086;-38
2024/02/12 06:59:10;;;;;;;30.98;16.80;;;8.30;93.10;;;;;;5072121;28;20025;-38
2024/02/12 07:01:40;;;;;;;30.48;16.55;;;8.30;93.10;;;;;;5072247;28;20369;-39
2024/02/12 07:04:06;;;;;;;24.98;15.07;;;8.30;93.10;;;;;;5072092;28;20017;-38
2024/02/12 07:06:32;;;;;;;27.75;15.68;;;8.30;93.10;;;;;;5071892;28;20028;-37
2024/02/12 07:08:58;;;;;;;29.30;16.65;;;8.30;93.10;;;;;;5070655;28;20058;-37
2024/02/12 07:11:25;;;;;;;30.92;15.18;;;8.30;93.10;;;;;;5071841;28;20035;-36
2024/02/12 07:13:51;;;;;;;26.88;16.45;;;8.30;93.10;;;;;;5071940;28;20024;-38
2024/02/12 07:16:19;;;;;;;29.15;16.25;;;8.30;93.10;;;;;;5070436;28;20032;-38
2024/02/12 07:18:47;;;;;;;27.98;17.13;;;8.30;93.10;;;;;;5070489;28;20029;-38
2024/02/12 07:21:13;;;;;;;31.35;16.70;;;8.40;93.20;;;;;;5071670;28;20017;-38
2024/02/12 07:23:39;;;;;;;29.17;15.63;;;8.40;93.10;;;;;;5070168;28;20445;-36
2024/02/12 07:26:06;;;;;;;25.60;15.73;;;8.40;93.10;;;;;;5071697;28;20082;-38
2024/02/12 07:28:31;;;;;;;27.75;15.80;;;8.40;93.10;;;;;;5071721;28;20468;-38
2024/02/12 07:30:57;;;;;;;31.77;14.95;;;8.40;93.10;;;;;;5070453;28;20031;-38
2024/02/12 07:33:23;;;;;;;26.45;14.80;;;8.40;93.10;;;;;;5071946;28;20028;-38
2024/02/12 07:35:48;;;;;;;29.25;16.10;;;8.40;93.10;;;;;;5071275;28;20127;-38
2024/02/12 07:38:14;;;;;;;26.40;14.23;;;8.50;93.10;;;;;;5071357;28;20060;-38
2024/02/12 07:40:39;;;;;;;25.92;16.20;;;8.50;93.10;;;;;;5070866;28;20027;-38
2024/02/12 07:43:05;;;;;;;24.65;14.82;;;8.50;93.00;;;;;;5070849;28;20094;-39
2024/02/12 07:45:34;;;;;;;26.67;15.20;;;8.50;93.00;;;;;;5070986;28;20013;-36
2024/02/12 07:48:00;;;;;;;25.60;15.88;;;8.50;93.00;;;;;;5071333;28;20031;-38
2024/02/12 07:50:26;;;;;;;25.38;14.75;;;8.50;93.00;;;;;;5071390;28;20031;-40
2024/02/12 07:52:51;;;;;;;24.02;14.20;;;8.50;93.00;;;;;;5071307;28;20405;-38
2024/02/12 07:55:20;;;;;;;26.15;14.93;;;8.50;93.00;;;;;;5071351;28;20078;-37
2024/02/12 07:57:50;;;;;;;25.98;14.80;;;8.50;93.00;;;;;;5071390;28;20385;-38
2024/02/12 08:00:17;;;;;;;24.45;14.68;;;8.60;93.10;;;;;;5071183;28;20024;-39
2024/02/12 08:02:44;;;;;;;23.63;14.25;;;8.60;93.00;;;;;;5071368;28;20025;-43
2024/02/12 08:05:11;;;;;;;24.58;14.10;;;8.60;93.10;;;;;;5071410;28;20071;-37
2024/02/12 08:07:36;;;;;;;22.95;13.68;;;8.60;93.10;;;;;;5071586;28;20388;-36
2024/02/12 08:10:03;;;;;;;21.98;13.48;;;8.60;93.10;;;;;;5071134;28;20020;-37
2024/02/12 08:12:31;;;;;;;19.85;12.95;;;8.70;93.10;;;;;;5071088;28;20108;-38
2024/02/12 08:14:57;;;;;;;23.60;13.80;;;8.70;93.10;;;;;;5071486;28;20364;-39
2024/02/12 08:17:25;;;;;;;22.75;13.00;;;8.80;93.00;;;;;;5070994;28;20481;-37
2024/02/12 08:19:51;;;;;;;23.52;14.50;;;8.80;93.00;;;;;;5070877;28;20025;-45
2024/02/12 08:22:17;;;;;;;21.77;12.98;;;8.80;93.00;;;;;;5070037;28;20077;-39
2024/02/12 08:24:43;;;;;;;21.83;13.15;;;8.90;93.00;;;;;;5070975;28;20032;-37
2024/02/12 08:27:09;;;;;;;21.85;13.98;;;8.90;93.00;;;;;;5071228;28;20029;-37
2024/02/12 08:29:35;;;;;;;24.52;14.35;;;8.90;93.00;;;;;;5071346;28;20033;-38
2024/02/12 08:32:01;;;;;;;22.10;13.18;;;8.90;92.90;;;;;;5075190;28;20540;-38
2024/02/12 08:34:28;;;;;;;23.75;14.27;;;8.90;92.90;;;;;;5074962;28;20056;-37
2024/02/12 08:36:54;;;;;;;25.77;14.95;;;8.90;92.90;;;;;;5074913;28;20036;-37
2024/02/12 08:39:21;;;;;;;26.25;15.48;;;8.90;92.70;;;;;;5074880;28;20464;-37
2024/02/12 08:41:47;;;;;;;26.65;14.90;;;8.90;92.80;;;;;;5075069;28;20477;-36
2024/02/12 08:44:12;;;;;;;26.13;15.95;;;8.90;92.80;;;;;;5074977;28;20103;-37
2024/02/12 08:46:38;;;;;;;24.35;14.93;;;9.00;92.80;;;;;;5073244;28;20158;-39
2024/02/12 08:49:04;;;;;;;22.95;14.07;;;9.00;92.80;;;;;;5074457;28;20499;-38
2024/02/12 08:51:30;;;;;;;26.63;15.68;;;9.10;92.70;;;;;;5074851;28;20028;-40
2024/02/12 08:53:56;;;;;;;26.27;15.25;;;9.10;92.70;;;;;;5074624;28;20028;-39
2024/02/12 08:56:22;;;;;;;24.92;15.20;;;9.10;92.70;;;;;;5074557;28;20069;-46
2024/02/12 08:58:48;;;;;;;23.25;14.30;;;9.20;92.60;;;;;;5074380;28;20035;-37
2024/02/12 09:01:17;;;;;;;24.90;14.98;;;9.20;92.60;;;;;;5074542;28;20376;-43
2024/02/12 09:03:43;;;;;;;25.45;15.05;;;9.10;92.50;;;;;;5074353;28;20025;-34
2024/02/12 09:06:11;;;;;;;27.92;16.13;;;9.10;92.50;;;;;;5074284;28;20062;-37
2024/02/12 09:08:42;;;;;;;27.13;16.25;;;9.10;92.50;;;;;;5074175;28;20029;-37
2024/02/12 09:11:08;;;;;;;26.63;16.90;;;9.20;92.60;;;;;;5074519;28;20063;-39
2024/02/12 09:13:35;;;;;;;24.73;15.88;;;9.20;92.50;;;;;;5074272;28;20035;-39
2024/02/12 09:16:01;;;;;;;27.67;16.92;;;9.20;92.50;;;;;;5073998;28;20488;-36
2024/02/12 09:18:27;;;;;;;27.83;16.33;;;9.30;92.50;;;;;;5074050;28;20021;-39
2024/02/12 09:20:55;;;;;;;27.55;16.92;;;9.30;92.40;;;;;;5073834;28;20027;-36
2024/02/12 09:23:21;;;;;;;27.38;17.77;;;9.40;92.50;;;;;;5073845;28;20028;-37
2024/02/12 09:25:51;;;;;;;28.60;16.88;;;9.40;92.40;;;;;;5074021;28;20023;-39
2024/02/12 09:28:17;;;;;;;28.05;18.10;;;9.40;92.40;;;;;;5074235;28;20150;-37
2024/02/12 09:30:44;;;;;;;31.05;19.63;;;9.30;92.30;;;;;;5073851;28;20060;-38
2024/02/12 09:33:14;;;;;;;29.50;19.50;;;9.30;92.30;;;;;;5073707;28;20029;-39
2024/02/12 09:35:41;;;;;;;28.15;17.70;;;9.30;92.30;;;;;;5073621;28;20052;-38
2024/02/12 09:38:08;;;;;;;34.40;19.67;;;9.30;92.40;;;;;;5073701;28;20029;-38
2024/02/12 09:40:34;;;;;;;37.05;20.85;;;9.30;92.30;;;;;;5073826;28;20016;-38
2024/02/12 09:43:00;;;;;;;33.22;19.90;;;9.30;92.30;;;;;;5072806;28;20017;-36
2024/02/12 09:45:29;;;;;;;31.65;19.67;;;9.30;92.30;;;;;;5074011;28;20024;-39
2024/02/12 09:47:58;;;;;;;33.63;19.35;;;9.30;92.20;;;;;;5073643;28;20028;-39
2024/02/12 09:50:28;;;;;;;38.20;22.00;;;9.20;92.20;;;;;;5073801;28;20031;-37
2024/02/12 09:52:56;;;;;;;35.97;19.83;;;9.20;92.20;;;;;;5073432;28;20070;-37
2024/02/12 09:55:22;;;;;;;37.67;20.98;;;9.20;92.30;;;;;;5073730;28;20115;-35
2024/02/12 09:57:48;;;;;;;32.38;18.52;;;9.20;92.30;;;;;;5073465;28;20100;-37
2024/02/12 10:00:14;;;;;;;35.38;19.42;;;9.20;92.30;;;;;;5073169;28;20100;-37
2024/02/12 10:02:41;;;;;;;34.85;19.95;;;9.20;92.30;;;;;;5073322;28;20020;-37
2024/02/12 10:05:10;;;;;;;31.23;18.45;;;9.30;92.30;;;;;;5073106;28;20020;-37
2024/02/12 10:07:39;;;;;;;31.35;18.63;;;9.30;92.30;;;;;;5073258;28;20032;-37
2024/02/12 10:10:07;;;;;;;31.20;19.02;;;9.30;92.30;;;;;;5073112;28;20017;-38
2024/02/12 10:12:35;;;;;;;33.65;20.08;;;9.30;92.60;;;;;;5073383;28;20055;-40
2024/02/12 10:15:00;;;;;;;33.88;19.27;;;9.30;92.40;;;;;;5072981;28;20020;-38
2024/02/12 10:17:26;;;;;;;35.25;20.33;;;9.30;92.40;;;;;;5072792;28;20021;-38
2024/02/12 10:19:51;;;;;;;36.35;19.80;;;9.40;92.40;;;;;;5072901;28;20091;-46
2024/02/12 10:22:19;;;;;;;29.80;19.15;;;9.40;92.30;;;;;;5072892;28;20028;-38
2024/02/12 10:24:47;;;;;;;33.35;19.73;;;9.50;92.40;;;;;;5072950;28;20020;-38
2024/02/12 10:27:14;;;;;;;30.23;18.83;;;9.60;92.40;;;;;;5072657;28;20084;-35
2024/02/12 10:29:40;;;;;;;31.05;17.77;;;9.70;92.30;;;;;;5072884;28;20025;-37
2024/02/12 10:32:09;;;;;;;26.95;16.88;;;9.80;92.20;;;;;;5073015;28;20357;-37
2024/02/12 10:34:40;;;;;;;26.52;17.40;;;9.90;92.20;;;;;;5072735;28;20119;-39
2024/02/12 10:37:07;;;;;;;26.00;16.52;;;10.00;92.10;;;;;;5072509;28;20025;-37
2024/02/12 10:39:37;;;;;;;27.63;16.13;;;10.00;92.00;;;;;;5072382;28;20491;-38
2024/02/12 10:42:06;;;;;;;26.48;16.48;;;10.00;92.00;;;;;;5072656;28;20020;-38
2024/02/12 10:44:32;;;;;;;26.05;16.15;;;10.10;91.90;;;;;;5072254;28;20016;-36
2024/02/12 10:46:58;;;;;;;21.38;14.88;;;10.20;91.90;;;;;;5072849;28;20480;-38
2024/02/12 10:49:26;;;;;;;22.38;14.23;;;10.20;91.80;;;;;;5072581;28;20035;-39
2024/02/12 10:51:54;;;;;;;24.35;14.27;;;10.20;91.80;;;;;;5072287;28;20021;-37
2024/02/12 10:54:22;;;;;;;23.33;13.48;;;10.20;91.80;;;;;;5072016;28;20052;-39
2024/02/12 10:56:49;;;;;;;19.90;12.27;;;10.30;91.60;;;;;;5072152;28;20112;-39
2024/02/12 10:59:16;;;;;;;18.65;11.70;;;10.30;91.50;;;;;;5072137;28;20029;-38
2024/02/12 11:01:43;;;;;;;20.33;11.73;;;10.30;91.50;;;;;;5071786;28;20081;-38
2024/02/12 11:04:13;;;;;;;18.50;12.38;;;10.30;91.40;;;;;;5072417;28;20027;-35
2024/02/12 11:06:40;;;;;;;20.67;12.75;;;10.30;91.30;;;;;;5072128;28;20028;-42
2024/02/12 11:09:11;;;;;;;17.63;11.45;;;10.30;91.40;;;;;;5071919;28;20025;-37
2024/02/12 11:11:46;;;;;;;16.40;10.30;;;10.30;91.20;;;;;;5071944;28;20469;-38
2024/02/12 11:14:18;;;;;;;18.60;10.13;;;10.30;91.10;;;;;;5072116;28;20465;-40
2024/02/12 11:16:43;;;;;;;15.75;10.20;;;10.30;91.00;;;;;;5071721;28;20028;-36
2024/02/12 11:19:16;;;;;;;18.17;10.43;;;10.40;91.00;;;;;;5070313;28;20026;-38
2024/02/12 11:21:44;;;;;;;17.07;9.80;;;10.40;90.90;;;;;;5071727;28;20039;-37
2024/02/12 11:24:11;;;;;;;15.88;10.48;;;10.40;90.80;;;;;;5071836;28;20301;-37
2024/02/12 11:26:49;;;;;;;13.80;9.65;;;10.40;90.60;;;;;;5071631;28;20023;-38
2024/02/12 11:29:19;;;;;;;18.70;10.48;;;10.40;90.70;;;;;;5071534;28;20031;-38
2024/02/12 11:31:47;;;;;;;14.63;9.40;;;10.40;90.90;;;;;;5071785;28;20044;-37
2024/02/12 11:34:14;;;;;;;14.02;9.30;;;10.40;90.50;;;;;;5071534;28;20508;-38
2024/02/12 11:36:40;;;;;;;15.05;9.02;;;10.40;90.50;;;;;;5071398;28;20021;-36
2024/02/12 11:39:07;;;;;;;14.85;9.45;;;10.40;90.50;;;;;;5071383;28;20029;-38
2024/02/12 11:41:33;;;;;;;13.95;8.77;;;10.30;90.40;;;;;;5071153;28;20054;-38
2024/02/12 11:44:05;;;;;;;14.45;9.00;;;10.30;90.50;;;;;;5071334;28;20027;-38
2024/02/12 11:46:34;;;;;;;13.55;8.88;;;10.30;90.50;;;;;;5071369;28;20051;-37
2024/02/12 11:49:06;;;;;;;13.57;8.40;;;10.30;90.50;;;;;;5071420;28;20024;-38
2024/02/12 11:51:36;;;;;;;14.57;7.97;;;10.20;90.30;;;;;;5071212;28;20029;-37
2024/02/12 11:54:03;;;;;;;8.63;6.57;;;10.10;90.30;;;;;;5071779;28;20100;-37
2024/02/12 11:56:29;;;;;;;11.60;7.10;;;10.10;90.30;;;;;;5071352;28;20034;-38
2024/02/12 11:58:55;;;;;;;9.35;6.30;;;10.20;90.30;;;;;;5071623;28;20016;-37
2024/02/12 12:01:31;;;;;;;8.43;6.45;;;10.20;90.30;;;;;;5071370;28;20078;-37
2024/02/12 12:04:00;;;;;;;9.73;6.20;;;10.30;90.20;;;;;;5071816;28;20029;-37
2024/02/12 12:06:34;;;;;;;9.30;5.60;;;10.30;89.70;;;;;;5077706;28;20024;-37
2024/02/12 12:09:02;;;;;;;9.38;5.40;;;10.30;89.60;;;;;;5077963;28;20048;-39
2024/02/12 12:11:27;;;;;;;11.73;4.80;;;10.30;89.10;;;;;;5078198;28;20098;-38
2024/02/12 12:13:57;;;;;;;6.35;4.80;;;10.30;89.20;;;;;;5077875;28;20028;-37
2024/02/12 12:16:23;;;;;;;6.93;4.22;;;10.30;89.10;;;;;;5078142;28;20051;-37
2024/02/12 12:18:49;;;;;;;7.47;4.40;;;10.30;89.00;;;;;;5076361;28;20021;-40
2024/02/12 12:21:18;;;;;;;5.65;4.10;;;10.30;88.90;;;;;;5077908;28;20025;-38
2024/02/12 12:23:45;;;;;;;5.60;3.72;;;10.30;89.00;;;;;;5078070;28;20075;-37
2024/02/12 12:26:11;;;;;;;7.28;4.63;;;10.30;88.90;;;;;;5077924;28;20024;-38
2024/02/12 12:28:37;;;;;;;5.63;4.20;;;10.30;88.50;;;;;;5076323;28;20081;-40
2024/02/12 12:31:04;;;;;;;7.03;4.05;;;10.30;88.60;;;;;;5077687;28;20385;-39
2024/02/12 12:33:31;;;;;;;7.90;3.90;;;10.30;88.80;;;;;;5077500;28;20029;-37
2024/02/12 12:35:57;;;;;;;7.03;3.97;;;10.30;88.80;;;;;;5077418;28;20048;-38
2024/02/12 12:38:22;;;;;;;7.97;4.05;;;10.40;89.00;;;;;;5077604;28;20024;-37
2024/02/12 12:40:49;;;;;;;8.02;4.28;;;10.50;88.70;;;;;;5077803;28;20031;-38
2024/02/12 12:43:16;;;;;;;10.15;4.40;;;10.60;88.50;;;;;;5077648;28;20020;-37
2024/02/12 12:45:42;;;;;;;7.75;4.47;;;10.70;88.10;;;;;;5077786;28;20024;-38
2024/02/12 12:48:12;;;;;;;5.13;4.15;;;10.80;88.20;;;;;;5077541;28;20479;-39
2024/02/12 12:50:38;;;;;;;7.93;4.55;;;10.90;88.10;;;;;;5077981;28;20452;-39
2024/02/12 12:53:06;;;;;;;6.50;3.90;;;11.00;88.00;;;;;;5077603;28;20407;-36